sensor_id;sensor_type;location;lat;lon;timestamp;pressure;altitude;pressure_sealevel;temperature;humidity
31911;BME280;18457;52.432;16.914;2023-04-26T00:02:06;99999.10;;;7.53;68.74
31911;BME280;18457;52.432;16.914;2023-04-26T00:04:38;99998.16;;;7.45;69.02
31911;BME280;18457;52.432;16.914;2023-04-26T00:07:10;99993.89;;;7.34;69.43
31911;BME280;18457;52.432;16.914;2023-04-26T00:09:43;99997.88;;;7.32;69.50
31911;BME280;18457;52.432;16.914;2023-04-26T00:12:15;99998.05;;;7.21;70.00
31911;BME280;18457;52.432;16.914;2023-04-26T00:14:47;99996.54;;;7.16;70.05
31911;BME280;18457;52.432;16.914;2023-04-26T00:17:19;99996.44;;;7.11;70.31
31911;BME280;18457;52.432;16.914;2023-04-26T00:19:52;100002.10;;;7.05;70.38
31911;BME280;18457;52.432;16.914;2023-04-26T00:22:24;100001.95;;;7.02;70.49
31911;BME280;18457;52.432;16.914;2023-04-26T00:24:56;100004.11;;;7.02;70.57
31911;BME280;18457;52.432;16.914;2023-04-26T00:27:28;100005.98;;;6.99;70.74
31911;BME280;18457;52.432;16.914;2023-04-26T00:30:01;100001.96;;;6.91;70.86
31911;BME280;18457;52.432;16.914;2023-04-26T00:32:33;100001.02;;;6.83;71.15
31911;BME280;18457;52.432;16.914;2023-04-26T00:35:09;100002.42;;;6.85;71.29
31911;BME280;18457;52.432;16.914;2023-04-26T00:37:41;99999.55;;;6.85;71.18
31911;BME280;18457;52.432;16.914;2023-04-26T00:40:13;100002.55;;;6.76;71.20
31911;BME280;18457;52.432;16.914;2023-04-26T00:42:47;100004.06;;;6.71;71.29
31911;BME280;18457;52.432;16.914;2023-04-26T00:45:19;100006.62;;;6.69;71.26
31911;BME280;18457;52.432;16.914;2023-04-26T00:47:50;100006.80;;;6.69;71.34
31911;BME280;18457;52.432;16.914;2023-04-26T00:50:24;100007.90;;;6.68;71.19
31911;BME280;18457;52.432;16.914;2023-04-26T00:52:57;100008.33;;;6.74;71.00
31911;BME280;18457;52.432;16.914;2023-04-26T00:55:32;100015.02;;;6.71;70.93
31911;BME280;18457;52.432;16.914;2023-04-26T00:58:04;100018.04;;;6.61;71.03
31911;BME280;18457;52.432;16.914;2023-04-26T01:00:36;100016.98;;;6.59;71.29
31911;BME280;18457;52.432;16.914;2023-04-26T01:03:08;100018.88;;;6.52;71.27
31911;BME280;18457;52.432;16.914;2023-04-26T01:05:41;100021.80;;;6.49;71.36
31911;BME280;18457;52.432;16.914;2023-04-26T01:08:14;100024.76;;;6.55;71.11
31911;BME280;18457;52.432;16.914;2023-04-26T01:10:50;100024.85;;;6.48;71.12
31911;BME280;18457;52.432;16.914;2023-04-26T01:13:23;100023.76;;;6.50;71.01
31911;BME280;18457;52.432;16.914;2023-04-26T01:15:59;100009.90;;;6.40;70.85
31911;BME280;18457;52.432;16.914;2023-04-26T01:18:32;100021.75;;;6.40;70.93
31911;BME280;18457;52.432;16.914;2023-04-26T01:21:04;100019.82;;;6.37;71.02
31911;BME280;18457;52.432;16.914;2023-04-26T01:23:36;100022.99;;;6.41;70.96
31911;BME280;18457;52.432;16.914;2023-04-26T01:26:09;100019.05;;;6.40;70.89
31911;BME280;18457;52.432;16.914;2023-04-26T01:28:41;100021.94;;;6.26;71.34
31911;BME280;18457;52.432;16.914;2023-04-26T01:31:13;100019.94;;;6.27;71.36
31911;BME280;18457;52.432;16.914;2023-04-26T01:33:45;100019.46;;;6.37;71.05
31911;BME280;18457;52.432;16.914;2023-04-26T01:36:17;100017.92;;;6.31;71.13
31911;BME280;18457;52.432;16.914;2023-04-26T01:38:50;100015.38;;;6.20;71.57
31911;BME280;18457;52.432;16.914;2023-04-26T01:41:24;100018.74;;;6.09;71.64
31911;BME280;18457;52.432;16.914;2023-04-26T01:43:57;100021.08;;;6.08;71.49
31911;BME280;18457;52.432;16.914;2023-04-26T01:46:30;100022.60;;;6.00;71.74
31911;BME280;18457;52.432;16.914;2023-04-26T01:49:02;100024.31;;;6.08;71.60
31911;BME280;18457;52.432;16.914;2023-04-26T01:51:34;100022.98;;;5.99;71.53
31911;BME280;18457;52.432;16.914;2023-04-26T01:54:09;100022.98;;;5.99;71.38
31911;BME280;18457;52.432;16.914;2023-04-26T01:56:41;100029.44;;;5.99;71.44
31911;BME280;18457;52.432;16.914;2023-04-26T01:59:13;100029.16;;;5.92;71.61
31911;BME280;18457;52.432;16.914;2023-04-26T02:01:45;100027.20;;;5.90;71.56
31911;BME280;18457;52.432;16.914;2023-04-26T02:04:17;100031.13;;;5.93;71.56
31911;BME280;18457;52.432;16.914;2023-04-26T02:06:49;100030.96;;;5.91;71.63
31911;BME280;18457;52.432;16.914;2023-04-26T02:09:22;100026.34;;;5.87;71.56
31911;BME280;18457;52.432;16.914;2023-04-26T02:11:55;100030.84;;;5.85;71.78
31911;BME280;18457;52.432;16.914;2023-04-26T02:14:30;100026.46;;;5.92;71.48
31911;BME280;18457;52.432;16.914;2023-04-26T02:17:04;100025.32;;;5.80;71.79
31911;BME280;18457;52.432;16.914;2023-04-26T02:19:37;100024.11;;;5.75;71.95
31911;BME280;18457;52.432;16.914;2023-04-26T02:22:09;100020.36;;;5.75;71.93
31911;BME280;18457;52.432;16.914;2023-04-26T02:24:44;100029.14;;;5.58;72.62
31911;BME280;18457;52.432;16.914;2023-04-26T02:27:17;100028.38;;;5.63;72.87
31911;BME280;18457;52.432;16.914;2023-04-26T02:29:49;100029.55;;;5.52;73.06
31911;BME280;18457;52.432;16.914;2023-04-26T02:32:21;100034.73;;;5.56;72.99
31911;BME280;18457;52.432;16.914;2023-04-26T02:34:53;100025.30;;;5.64;72.72
31911;BME280;18457;52.432;16.914;2023-04-26T02:37:26;100028.60;;;5.58;72.83
31911;BME280;18457;52.432;16.914;2023-04-26T02:39:58;100025.77;;;5.56;72.85
31911;BME280;18457;52.432;16.914;2023-04-26T02:42:30;100027.35;;;5.58;72.63
31911;BME280;18457;52.432;16.914;2023-04-26T02:45:02;100029.73;;;5.52;72.99
31911;BME280;18457;52.432;16.914;2023-04-26T02:47:35;100028.50;;;5.49;73.07
31911;BME280;18457;52.432;16.914;2023-04-26T02:50:09;100029.81;;;5.45;73.22
31911;BME280;18457;52.432;16.914;2023-04-26T02:52:42;100028.21;;;5.44;73.39
31911;BME280;18457;52.432;16.914;2023-04-26T02:55:14;100031.49;;;5.37;73.78
31911;BME280;18457;52.432;16.914;2023-04-26T02:57:45;100034.30;;;5.41;73.50
31911;BME280;18457;52.432;16.914;2023-04-26T03:00:19;100029.53;;;5.35;73.52
31911;BME280;18457;52.432;16.914;2023-04-26T03:02:51;100031.73;;;5.28;73.66
31911;BME280;18457;52.432;16.914;2023-04-26T03:05:24;100037.30;;;5.27;73.79
31911;BME280;18457;52.432;16.914;2023-04-26T03:07:56;100038.59;;;5.23;73.93
31911;BME280;18457;52.432;16.914;2023-04-26T03:10:28;100033.44;;;5.18;74.26
31911;BME280;18457;52.432;16.914;2023-04-26T03:13:01;100042.89;;;5.24;73.93
31911;BME280;18457;52.432;16.914;2023-04-26T03:15:34;100040.20;;;5.23;73.96
31911;BME280;18457;52.432;16.914;2023-04-26T03:18:06;100044.61;;;5.11;74.44
31911;BME280;18457;52.432;16.914;2023-04-26T03:20:38;100039.11;;;5.04;74.67
31911;BME280;18457;52.432;16.914;2023-04-26T03:23:10;100044.66;;;5.03;74.80
31911;BME280;18457;52.432;16.914;2023-04-26T03:25:42;100045.73;;;5.04;74.88
31911;BME280;18457;52.432;16.914;2023-04-26T03:28:14;100054.14;;;5.04;74.88
31911;BME280;18457;52.432;16.914;2023-04-26T03:30:46;100049.52;;;5.02;75.15
31911;BME280;18457;52.432;16.914;2023-04-26T03:33:19;100049.29;;;5.08;75.00
31911;BME280;18457;52.432;16.914;2023-04-26T03:35:52;100052.21;;;5.01;75.14
31911;BME280;18457;52.432;16.914;2023-04-26T03:38:24;100051.13;;;5.02;75.31
31911;BME280;18457;52.432;16.914;2023-04-26T03:40:56;100056.11;;;5.03;75.19
31911;BME280;18457;52.432;16.914;2023-04-26T03:43:28;100056.89;;;4.96;75.47
31911;BME280;18457;52.432;16.914;2023-04-26T03:46:04;100058.38;;;4.87;76.02
31911;BME280;18457;52.432;16.914;2023-04-26T03:48:37;100058.83;;;4.76;76.52
31911;BME280;18457;52.432;16.914;2023-04-26T03:51:08;100060.05;;;4.78;76.57
31911;BME280;18457;52.432;16.914;2023-04-26T03:53:41;100062.75;;;4.77;76.69
31911;BME280;18457;52.432;16.914;2023-04-26T03:56:13;100060.04;;;4.81;76.83
31911;BME280;18457;52.432;16.914;2023-04-26T03:58:46;100067.27;;;4.93;76.39
31911;BME280;18457;52.432;16.914;2023-04-26T04:01:19;100067.66;;;4.91;76.27
31911;BME280;18457;52.432;16.914;2023-04-26T04:03:52;100070.90;;;4.90;76.48
31911;BME280;18457;52.432;16.914;2023-04-26T04:06:25;100076.13;;;4.85;76.69
31911;BME280;18457;52.432;16.914;2023-04-26T04:08:57;100077.02;;;4.82;76.93
31911;BME280;18457;52.432;16.914;2023-04-26T04:11:30;100077.77;;;4.80;77.12
31911;BME280;18457;52.432;16.914;2023-04-26T04:14:03;100078.44;;;4.84;77.05
31911;BME280;18457;52.432;16.914;2023-04-26T04:16:37;100080.23;;;4.86;76.92
31911;BME280;18457;52.432;16.914;2023-04-26T04:19:10;100080.35;;;4.94;77.00
31911;BME280;18457;52.432;16.914;2023-04-26T04:21:43;100087.18;;;4.89;76.92
31911;BME280;18457;52.432;16.914;2023-04-26T04:24:15;100084.88;;;4.86;77.22
31911;BME280;18457;52.432;16.914;2023-04-26T04:26:48;100083.11;;;4.81;77.31
31911;BME280;18457;52.432;16.914;2023-04-26T04:29:21;100088.15;;;4.77;77.69
31911;BME280;18457;52.432;16.914;2023-04-26T04:31:54;100092.48;;;4.72;78.02
31911;BME280;18457;52.432;16.914;2023-04-26T04:34:26;100094.48;;;4.62;78.42
31911;BME280;18457;52.432;16.914;2023-04-26T04:36:58;100087.14;;;4.66;78.26
31911;BME280;18457;52.432;16.914;2023-04-26T04:39:30;100098.01;;;4.75;78.20
31911;BME280;18457;52.432;16.914;2023-04-26T04:42:02;100097.27;;;4.76;78.06
31911;BME280;18457;52.432;16.914;2023-04-26T04:44:35;100098.34;;;4.78;78.01
31911;BME280;18457;52.432;16.914;2023-04-26T04:47:07;100099.97;;;4.74;78.39
31911;BME280;18457;52.432;16.914;2023-04-26T04:49:40;100101.76;;;4.76;78.56
31911;BME280;18457;52.432;16.914;2023-04-26T04:52:13;100103.54;;;4.77;78.41
31911;BME280;18457;52.432;16.914;2023-04-26T04:54:49;100111.08;;;4.73;78.72
31911;BME280;18457;52.432;16.914;2023-04-26T04:57:21;100105.80;;;4.90;78.25
31911;BME280;18457;52.432;16.914;2023-04-26T04:59:55;100115.27;;;4.88;78.41
31911;BME280;18457;52.432;16.914;2023-04-26T05:02:29;100117.28;;;4.84;78.51
31911;BME280;18457;52.432;16.914;2023-04-26T05:05:03;100119.19;;;4.95;78.04
31911;BME280;18457;52.432;16.914;2023-04-26T05:07:37;100112.09;;;4.83;78.34
31911;BME280;18457;52.432;16.914;2023-04-26T05:10:14;100121.20;;;4.84;78.71
31911;BME280;18457;52.432;16.914;2023-04-26T05:12:48;100117.04;;;4.95;78.62
31911;BME280;18457;52.432;16.914;2023-04-26T05:15:20;100118.80;;;4.98;78.52
31911;BME280;18457;52.432;16.914;2023-04-26T05:17:53;100125.18;;;5.08;78.39
31911;BME280;18457;52.432;16.914;2023-04-26T05:20:27;100133.77;;;5.10;78.19
31911;BME280;18457;52.432;16.914;2023-04-26T05:23:06;100136.88;;;5.00;78.48
31911;BME280;18457;52.432;16.914;2023-04-26T05:25:41;100120.45;;;4.93;78.47
31911;BME280;18457;52.432;16.914;2023-04-26T05:28:34;100137.34;;;5.11;78.31
31911;BME280;18457;52.432;16.914;2023-04-26T05:31:22;100137.34;;;5.12;78.30
31911;BME280;18457;52.432;16.914;2023-04-26T05:34:06;100146.59;;;5.19;78.18
31911;BME280;18457;52.432;16.914;2023-04-26T05:36:41;100147.66;;;5.20;77.92
31911;BME280;18457;52.432;16.914;2023-04-26T05:39:13;100143.02;;;5.19;77.86
31911;BME280;18457;52.432;16.914;2023-04-26T05:41:47;100145.98;;;5.30;77.88
31911;BME280;18457;52.432;16.914;2023-04-26T05:44:21;100148.42;;;5.39;77.41
31911;BME280;18457;52.432;16.914;2023-04-26T05:46:56;100148.77;;;5.41;77.16
31911;BME280;18457;52.432;16.914;2023-04-26T05:49:34;100145.13;;;5.48;77.05
31911;BME280;18457;52.432;16.914;2023-04-26T05:52:08;100147.27;;;5.50;76.88
31911;BME280;18457;52.432;16.914;2023-04-26T05:54:42;100158.16;;;5.54;76.89
31911;BME280;18457;52.432;16.914;2023-04-26T05:57:19;100149.49;;;5.63;76.78
31911;BME280;18457;52.432;16.914;2023-04-26T05:59:53;100158.18;;;5.74;76.29
31911;BME280;18457;52.432;16.914;2023-04-26T06:02:26;100155.48;;;5.74;75.69
31911;BME280;18457;52.432;16.914;2023-04-26T06:05:10;100160.11;;;5.78;75.38
31911;BME280;18457;52.432;16.914;2023-04-26T06:07:45;100158.45;;;5.86;75.24
31911;BME280;18457;52.432;16.914;2023-04-26T06:10:21;100162.59;;;5.84;75.10
31911;BME280;18457;52.432;16.914;2023-04-26T06:12:55;100158.51;;;5.76;75.35
31911;BME280;18457;52.432;16.914;2023-04-26T06:15:28;100160.15;;;5.74;75.21
31911;BME280;18457;52.432;16.914;2023-04-26T06:18:03;100161.90;;;5.79;74.63
31911;BME280;18457;52.432;16.914;2023-04-26T06:20:39;100150.27;;;5.80;74.60
31911;BME280;18457;52.432;16.914;2023-04-26T06:23:17;100154.23;;;5.98;74.40
31911;BME280;18457;52.432;16.914;2023-04-26T06:25:51;100156.90;;;5.99;74.02
31911;BME280;18457;52.432;16.914;2023-04-26T06:28:26;100154.77;;;5.99;73.51
31911;BME280;18457;52.432;16.914;2023-04-26T06:31:01;100156.50;;;6.04;73.15
31911;BME280;18457;52.432;16.914;2023-04-26T06:33:34;100158.19;;;6.15;73.18
31911;BME280;18457;52.432;16.914;2023-04-26T06:36:14;100158.95;;;6.27;72.87
31911;BME280;18457;52.432;16.914;2023-04-26T06:38:50;100161.99;;;6.28;71.66
31911;BME280;18457;52.432;16.914;2023-04-26T06:41:25;100164.66;;;6.29;71.21
31911;BME280;18457;52.432;16.914;2023-04-26T06:43:59;100168.01;;;6.35;71.27
31911;BME280;18457;52.432;16.914;2023-04-26T06:46:35;100161.79;;;6.46;71.31
31911;BME280;18457;52.432;16.914;2023-04-26T06:49:12;100167.13;;;6.50;70.92
31911;BME280;18457;52.432;16.914;2023-04-26T06:51:45;100169.08;;;6.53;71.16
31911;BME280;18457;52.432;16.914;2023-04-26T06:54:19;100180.01;;;6.53;70.46
31911;BME280;18457;52.432;16.914;2023-04-26T06:56:53;100177.65;;;6.55;70.25
31911;BME280;18457;52.432;16.914;2023-04-26T06:59:27;100183.52;;;6.60;70.03
31911;BME280;18457;52.432;16.914;2023-04-26T07:02:00;100181.55;;;6.59;69.67
31911;BME280;18457;52.432;16.914;2023-04-26T07:04:35;100177.77;;;6.60;69.52
31911;BME280;18457;52.432;16.914;2023-04-26T07:07:08;100182.95;;;6.64;69.56
31911;BME280;18457;52.432;16.914;2023-04-26T07:09:44;100182.86;;;6.69;68.54
31911;BME280;18457;52.432;16.914;2023-04-26T07:12:17;100183.46;;;6.79;68.27
31911;BME280;18457;52.432;16.914;2023-04-26T07:14:50;100172.85;;;6.82;68.42
31911;BME280;18457;52.432;16.914;2023-04-26T07:17:24;100181.20;;;6.88;68.06
31911;BME280;18457;52.432;16.914;2023-04-26T07:19:59;100183.34;;;6.89;68.56
31911;BME280;18457;52.432;16.914;2023-04-26T07:22:30;100186.72;;;6.92;67.60
31911;BME280;18457;52.432;16.914;2023-04-26T07:25:06;100187.77;;;6.93;67.52
31911;BME280;18457;52.432;16.914;2023-04-26T07:27:39;100188.25;;;6.97;67.87
31911;BME280;18457;52.432;16.914;2023-04-26T07:30:14;100185.72;;;6.99;67.24
31911;BME280;18457;52.432;16.914;2023-04-26T07:33:02;100196.30;;;7.00;66.54
31911;BME280;18457;52.432;16.914;2023-04-26T07:35:37;100199.41;;;7.10;66.23
31911;BME280;18457;52.432;16.914;2023-04-26T07:38:10;100187.27;;;7.17;66.07
31911;BME280;18457;52.432;16.914;2023-04-26T07:40:51;100198.16;;;7.22;65.54
31911;BME280;18457;52.432;16.914;2023-04-26T07:43:26;100202.13;;;7.20;64.94
31911;BME280;18457;52.432;16.914;2023-04-26T07:46:04;100201.71;;;7.24;64.78
31911;BME280;18457;52.432;16.914;2023-04-26T07:48:41;100204.38;;;7.39;64.69
31911;BME280;18457;52.432;16.914;2023-04-26T07:51:14;100196.60;;;7.43;64.10
31911;BME280;18457;52.432;16.914;2023-04-26T07:53:48;100209.41;;;7.52;63.70
31911;BME280;18457;52.432;16.914;2023-04-26T07:56:22;100209.77;;;7.52;63.84
31911;BME280;18457;52.432;16.914;2023-04-26T07:58:57;100192.31;;;7.42;63.70
31911;BME280;18457;52.432;16.914;2023-04-26T08:01:33;100229.71;;;7.40;63.76
31911;BME280;18457;52.432;16.914;2023-04-26T08:04:07;100222.00;;;7.39;63.59
31911;BME280;18457;52.432;16.914;2023-04-26T08:06:39;100220.30;;;7.44;63.63
31911;BME280;18457;52.432;16.914;2023-04-26T08:09:15;100215.43;;;7.57;63.85
31911;BME280;18457;52.432;16.914;2023-04-26T08:11:50;100218.33;;;7.79;63.60
31911;BME280;18457;52.432;16.914;2023-04-26T08:14:21;100216.16;;;7.90;62.98
31911;BME280;18457;52.432;16.914;2023-04-26T08:16:55;100196.04;;;7.90;62.14
31911;BME280;18457;52.432;16.914;2023-04-26T08:19:28;100214.23;;;7.99;61.82
31911;BME280;18457;52.432;16.914;2023-04-26T08:22:07;100219.67;;;7.96;61.71
31911;BME280;18457;52.432;16.914;2023-04-26T08:24:40;100223.14;;;7.92;61.59
31911;BME280;18457;52.432;16.914;2023-04-26T08:27:13;100222.14;;;7.88;61.33
31911;BME280;18457;52.432;16.914;2023-04-26T08:29:47;100208.42;;;7.81;60.46
31911;BME280;18457;52.432;16.914;2023-04-26T08:32:20;100238.08;;;7.92;59.19
31911;BME280;18457;52.432;16.914;2023-04-26T08:34:53;100229.92;;;7.97;59.81
31911;BME280;18457;52.432;16.914;2023-04-26T08:37:29;100224.64;;;8.01;60.03
31911;BME280;18457;52.432;16.914;2023-04-26T08:40:04;100230.02;;;8.02;60.62
31911;BME280;18457;52.432;16.914;2023-04-26T08:42:44;100229.39;;;7.96;60.71
31911;BME280;18457;52.432;16.914;2023-04-26T08:45:16;100229.48;;;8.02;60.48
31911;BME280;18457;52.432;16.914;2023-04-26T08:47:51;100220.79;;;8.04;59.42
31911;BME280;18457;52.432;16.914;2023-04-26T08:50:28;100222.70;;;8.31;58.48
31911;BME280;18457;52.432;16.914;2023-04-26T08:53:01;100222.76;;;8.48;57.04
31911;BME280;18457;52.432;16.914;2023-04-26T08:55:37;100223.11;;;8.67;56.00
31911;BME280;18457;52.432;16.914;2023-04-26T08:58:12;100220.38;;;8.69;54.80
31911;BME280;18457;52.432;16.914;2023-04-26T09:00:50;100228.46;;;8.60;55.28
31911;BME280;18457;52.432;16.914;2023-04-26T09:03:25;100236.70;;;8.53;55.65
31911;BME280;18457;52.432;16.914;2023-04-26T09:06:00;100235.79;;;8.34;55.83
31911;BME280;18457;52.432;16.914;2023-04-26T09:08:40;100235.38;;;8.37;55.70
31911;BME280;18457;52.432;16.914;2023-04-26T09:11:15;100232.84;;;8.47;55.67
31911;BME280;18457;52.432;16.914;2023-04-26T09:13:48;100241.34;;;8.55;55.52
31911;BME280;18457;52.432;16.914;2023-04-26T09:16:37;100237.26;;;8.42;54.69
31911;BME280;18457;52.432;16.914;2023-04-26T09:19:12;100241.04;;;8.42;55.25
31911;BME280;18457;52.432;16.914;2023-04-26T09:21:47;100231.20;;;8.49;56.16
31911;BME280;18457;52.432;16.914;2023-04-26T09:24:21;100236.40;;;8.59;56.39
31911;BME280;18457;52.432;16.914;2023-04-26T09:27:03;100242.40;;;8.56;56.21
31911;BME280;18457;52.432;16.914;2023-04-26T09:29:37;100244.38;;;8.56;55.76
31911;BME280;18457;52.432;16.914;2023-04-26T09:32:13;100242.06;;;8.64;55.84
31911;BME280;18457;52.432;16.914;2023-04-26T09:34:48;100243.23;;;8.87;55.72
31911;BME280;18457;52.432;16.914;2023-04-26T09:37:27;100244.70;;;8.77;54.31
31911;BME280;18457;52.432;16.914;2023-04-26T09:40:03;100243.95;;;8.70;53.55
31911;BME280;18457;52.432;16.914;2023-04-26T09:42:42;100243.35;;;8.72;54.26
31911;BME280;18457;52.432;16.914;2023-04-26T09:45:13;100250.35;;;8.74;54.74
31911;BME280;18457;52.432;16.914;2023-04-26T09:47:48;100256.66;;;8.83;54.28
31911;BME280;18457;52.432;16.914;2023-04-26T09:50:29;100252.02;;;8.98;54.28
31911;BME280;18457;52.432;16.914;2023-04-26T09:53:05;100250.84;;;9.21;54.07
31911;BME280;18457;52.432;16.914;2023-04-26T09:55:38;100254.93;;;9.24;53.21
31911;BME280;18457;52.432;16.914;2023-04-26T09:58:11;100250.66;;;9.12;52.14
31911;BME280;18457;52.432;16.914;2023-04-26T10:00:42;100249.23;;;9.03;51.56
31911;BME280;18457;52.432;16.914;2023-04-26T10:03:18;100249.32;;;8.98;52.22
31911;BME280;18457;52.432;16.914;2023-04-26T10:05:57;100254.86;;;8.92;53.06
31911;BME280;18457;52.432;16.914;2023-04-26T10:08:29;100257.46;;;8.88;53.19
31911;BME280;18457;52.432;16.914;2023-04-26T10:11:03;100255.13;;;8.87;53.12
31911;BME280;18457;52.432;16.914;2023-04-26T10:13:38;100261.66;;;8.95;54.36
31911;BME280;18457;52.432;16.914;2023-04-26T10:16:13;100261.37;;;8.72;56.56
31911;BME280;18457;52.432;16.914;2023-04-26T10:18:45;100270.79;;;8.50;57.84
31911;BME280;18457;52.432;16.914;2023-04-26T10:21:25;100280.14;;;8.28;59.96
31911;BME280;18457;52.432;16.914;2023-04-26T10:24:00;100282.19;;;8.23;62.24
31911;BME280;18457;52.432;16.914;2023-04-26T10:26:51;100283.52;;;8.32;63.46
31911;BME280;18457;52.432;16.914;2023-04-26T10:30:07;100279.90;;;8.33;62.76
31911;BME280;18457;52.432;16.914;2023-04-26T10:36:10;100282.98;;;8.62;60.20
31911;BME280;18457;52.432;16.914;2023-04-26T10:39:18;100287.67;;;8.71;60.11
31911;BME280;18457;52.432;16.914;2023-04-26T10:41:53;100289.39;;;8.85;58.45
31911;BME280;18457;52.432;16.914;2023-04-26T10:44:50;100277.23;;;8.99;56.70
31911;BME280;18457;52.432;16.914;2023-04-26T10:47:30;100264.63;;;9.25;54.64
31911;BME280;18457;52.432;16.914;2023-04-26T10:50:08;100270.38;;;9.51;52.31
31911;BME280;18457;52.432;16.914;2023-04-26T10:53:08;100260.38;;;9.70;49.93
31911;BME280;18457;52.432;16.914;2023-04-26T10:55:44;100259.84;;;10.01;49.70
31911;BME280;18457;52.432;16.914;2023-04-26T10:58:29;100260.49;;;10.26;49.30
31911;BME280;18457;52.432;16.914;2023-04-26T11:01:14;100253.48;;;10.02;49.50
31911;BME280;18457;52.432;16.914;2023-04-26T11:06:54;100258.59;;;9.85;51.42
31911;BME280;18457;52.432;16.914;2023-04-26T11:09:38;100266.55;;;9.76;51.93
31911;BME280;18457;52.432;16.914;2023-04-26T11:12:15;100276.44;;;9.70;52.19
31911;BME280;18457;52.432;16.914;2023-04-26T11:14:47;100280.95;;;9.61;51.13
31911;BME280;18457;52.432;16.914;2023-04-26T11:17:24;100277.84;;;9.80;51.32
31911;BME280;18457;52.432;16.914;2023-04-26T11:19:58;100276.02;;;9.89;50.54
31911;BME280;18457;52.432;16.914;2023-04-26T11:22:42;100282.92;;;9.94;50.44
31911;BME280;18457;52.432;16.914;2023-04-26T11:25:15;100278.21;;;9.86;50.54
31911;BME280;18457;52.432;16.914;2023-04-26T11:27:47;100280.64;;;9.76;50.63
31911;BME280;18457;52.432;16.914;2023-04-26T11:30:21;100279.15;;;9.78;50.64
31911;BME280;18457;52.432;16.914;2023-04-26T11:32:55;100277.98;;;9.89;50.58
31911;BME280;18457;52.432;16.914;2023-04-26T11:35:29;100283.48;;;10.01;50.54
31911;BME280;18457;52.432;16.914;2023-04-26T11:38:06;100288.09;;;10.05;48.75
31911;BME280;18457;52.432;16.914;2023-04-26T11:40:39;100284.67;;;10.12;47.65
31911;BME280;18457;52.432;16.914;2023-04-26T11:43:13;100282.27;;;10.22;46.71
31911;BME280;18457;52.432;16.914;2023-04-26T11:45:46;100286.95;;;10.30;47.01
31911;BME280;18457;52.432;16.914;2023-04-26T11:48:19;100289.12;;;10.36;46.46
31911;BME280;18457;52.432;16.914;2023-04-26T11:50:51;100288.54;;;10.39;45.35
31911;BME280;18457;52.432;16.914;2023-04-26T11:53:38;100289.73;;;10.48;44.72
31911;BME280;18457;52.432;16.914;2023-04-26T11:56:18;100286.90;;;11.00;44.52
31911;BME280;18457;52.432;16.914;2023-04-26T11:58:54;100291.88;;;11.15;44.13
31911;BME280;18457;52.432;16.914;2023-04-26T12:01:34;100279.21;;;11.35;43.48
31911;BME280;18457;52.432;16.914;2023-04-26T12:04:10;100284.70;;;11.70;43.31
31911;BME280;18457;52.432;16.914;2023-04-26T12:06:45;100282.32;;;11.39;41.78
31911;BME280;18457;52.432;16.914;2023-04-26T12:09:23;100267.41;;;11.11;41.34
31911;BME280;18457;52.432;16.914;2023-04-26T12:11:59;100279.57;;;11.34;41.25
31911;BME280;18457;52.432;16.914;2023-04-26T12:14:33;100280.45;;;11.29;41.79
31911;BME280;18457;52.432;16.914;2023-04-26T12:17:08;100285.21;;;11.33;42.18
31911;BME280;18457;52.432;16.914;2023-04-26T12:19:42;100283.19;;;11.34;40.82
31911;BME280;18457;52.432;16.914;2023-04-26T12:22:20;100284.49;;;11.52;40.83
31911;BME280;18457;52.432;16.914;2023-04-26T12:25:05;100281.87;;;11.61;40.28
31911;BME280;18457;52.432;16.914;2023-04-26T12:27:38;100283.24;;;11.64;39.48
31911;BME280;18457;52.432;16.914;2023-04-26T12:30:12;100285.09;;;11.63;39.74
31911;BME280;18457;52.432;16.914;2023-04-26T12:32:45;100289.33;;;11.41;40.45
31911;BME280;18457;52.432;16.914;2023-04-26T12:35:24;100287.01;;;11.34;41.00
31911;BME280;18457;52.432;16.914;2023-04-26T12:37:58;100290.60;;;11.10;41.59
31911;BME280;18457;52.432;16.914;2023-04-26T12:40:32;100287.58;;;11.20;42.02
31911;BME280;18457;52.432;16.914;2023-04-26T12:43:08;100290.73;;;11.49;41.75
31911;BME280;18457;52.432;16.914;2023-04-26T12:45:41;100285.73;;;11.83;41.37
31911;BME280;18457;52.432;16.914;2023-04-26T12:48:13;100285.16;;;12.01;41.21
31911;BME280;18457;52.432;16.914;2023-04-26T12:50:46;100290.29;;;12.16;40.34
31911;BME280;18457;52.432;16.914;2023-04-26T12:53:20;100287.88;;;12.07;39.40
31911;BME280;18457;52.432;16.914;2023-04-26T12:55:52;100292.64;;;11.77;40.21
31911;BME280;18457;52.432;16.914;2023-04-26T12:58:24;100297.27;;;11.48;41.20
31911;BME280;18457;52.432;16.914;2023-04-26T13:00:58;100295.20;;;11.19;41.86
31911;BME280;18457;52.432;16.914;2023-04-26T13:03:30;100295.17;;;11.52;42.45
31911;BME280;18457;52.432;16.914;2023-04-26T13:06:03;100301.16;;;11.93;40.92
31911;BME280;18457;52.432;16.914;2023-04-26T13:08:35;100299.00;;;12.04;38.06
31911;BME280;18457;52.432;16.914;2023-04-26T13:11:07;100295.73;;;11.99;37.47
31911;BME280;18457;52.432;16.914;2023-04-26T13:13:42;100304.81;;;11.92;38.67
31911;BME280;18457;52.432;16.914;2023-04-26T13:16:15;100306.86;;;11.60;39.28
31911;BME280;18457;52.432;16.914;2023-04-26T13:18:47;100297.77;;;11.62;39.97
31911;BME280;18457;52.432;16.914;2023-04-26T13:21:19;100298.67;;;11.56;40.08
31911;BME280;18457;52.432;16.914;2023-04-26T13:23:51;100299.69;;;11.58;39.74
31911;BME280;18457;52.432;16.914;2023-04-26T13:26:24;100304.98;;;11.38;39.86
31911;BME280;18457;52.432;16.914;2023-04-26T13:28:57;100307.00;;;11.11;40.45
31911;BME280;18457;52.432;16.914;2023-04-26T13:31:29;100310.04;;;11.07;41.68
31911;BME280;18457;52.432;16.914;2023-04-26T13:34:03;100319.26;;;10.93;42.42